Time;durP1;ratioP1;P1;durP2;ratioP2;P2;SDS_P1;SDS_P2;PMS_P1;PMS_P2;Temp;Humidity;BMP_temperature;BMP_pressure;BME280_temperature;BME280_humidity;BME280_pressure;Samples;Min_cycle;Max_cycle;Signal;HPM_P1;HPM_P2
2022/01/27 00:02:29;;;;;;;16.10;9.10;;;;;;;1.90;69.17;102130.19;5068093;28;20502;-94
2022/01/27 00:07:55;;;;;;;17.27;9.27;;;;;;;1.89;69.29;102145.50;5074201;28;20068;-92
2022/01/27 00:10:46;;;;;;;16.38;9.25;;;;;;;1.59;69.37;102102.75;5037186;28;20116;-94
2022/01/27 00:13:15;;;;;;;18.23;9.52;;;;;;;1.57;69.60;102104.22;5054765;28;20055;-93
2022/01/27 00:15:44;;;;;;;16.88;9.70;;;;;;;1.37;69.48;102078.81;5035965;28;20036;-92
2022/01/27 00:18:16;;;;;;;17.38;9.32;;;;;;;1.86;69.23;102153.78;5030521;28;20046;-92
2022/01/27 00:20:46;;;;;;;16.80;9.52;;;;;;;1.70;69.41;102129.69;5055884;28;20086;-91
2022/01/27 00:23:17;;;;;;;18.23;9.73;;;;;;;1.65;69.45;102128.25;5071163;28;20051;-91
2022/01/27 00:25:49;;;;;;;16.67;9.23;;;;;;;1.84;69.23;102170.72;5015385;28;20433;-93
2022/01/27 00:28:41;;;;;;;17.15;9.48;;;;;;;1.91;68.88;102164.63;5065067;28;20034;-91
2022/01/27 00:34:28;;;;;;;18.17;9.35;;;;;;;1.68;69.16;102115.72;5064877;28;20124;-91
2022/01/27 00:37:06;;;;;;;17.47;9.50;;;;;;;1.55;68.98;102091.19;5054423;28;20503;-92
2022/01/27 00:43:01;;;;;;;17.63;9.45;;;;;;;1.88;68.74;102144.56;5072057;28;20063;-92
2022/01/27 00:45:41;;;;;;;16.45;8.93;;;;;;;1.98;68.99;102154.25;5054055;28;20123;-94
2022/01/27 00:48:27;;;;;;;16.05;8.75;;;;;;;1.86;69.46;102160.63;5054689;28;20567;-91
2022/01/27 00:51:25;;;;;;;16.45;9.00;;;;;;;1.86;69.10;102158.03;5054848;28;20043;-93
2022/01/27 00:54:02;;;;;;;15.55;9.13;;;;;;;1.77;69.08;102150.22;5054730;28;20041;-92
2022/01/27 00:56:41;;;;;;;17.02;9.13;;;;;;;1.60;68.95;102089.13;5055944;28;20021;-91
2022/01/27 01:05:47;;;;;;;15.95;8.77;;;;;;;1.85;68.94;102113.34;5069228;28;20124;-93
2022/01/27 01:11:30;;;;;;;17.65;8.95;;;;;;;2.02;68.79;102149.59;5072858;28;20028;-92
2022/01/27 01:31:52;;;;;;;15.15;8.23;;;;;;;2.00;69.33;102145.03;5059689;28;20036;-93
2022/01/27 01:34:59;;;;;;;15.30;8.43;;;;;;;1.92;69.54;102139.00;5050842;28;20493;-95
2022/01/27 01:37:24;;;;;;;14.43;7.85;;;;;;;1.62;69.46;102103.97;5078367;28;20036;-89
2022/01/27 01:40:04;;;;;;;15.15;8.85;;;;;;;1.70;69.13;102107.41;5061844;28;20127;-92
2022/01/27 01:42:42;;;;;;;15.10;8.65;;;;;;;2.04;68.86;102142.03;5060391;28;20036;-91
2022/01/27 01:45:12;;;;;;;15.40;8.48;;;;;;;1.96;68.92;102129.97;5062152;28;20465;-92
2022/01/27 01:47:56;;;;;;;16.23;8.90;;;;;;;2.04;68.73;102142.94;5061662;28;20024;-91
2022/01/27 01:50:25;;;;;;;16.63;8.77;;;;;;;2.01;69.03;102152.94;5078335;28;20028;-92
2022/01/27 01:53:11;;;;;;;14.95;8.52;;;;;;;1.92;69.15;102158.72;5058786;28;20025;-94
2022/01/27 01:55:45;;;;;;;16.88;8.93;;;;;;;1.91;68.96;102152.66;5041656;28;20020;-93
2022/01/27 02:01:44;;;;;;;15.85;8.77;;;;;;;1.57;68.82;102078.50;5075830;28;20583;-92
2022/01/27 02:04:15;;;;;;;15.98;8.85;;;;;;;1.97;69.12;102155.91;5044330;28;20519;-91
2022/01/27 02:07:10;;;;;;;16.45;8.63;;;;;;;1.93;69.26;102153.75;5042581;28;20020;-92
2022/01/27 02:18:08;;;;;;;16.77;9.23;;;;;;;2.04;68.99;102144.63;5075880;28;20131;-89
2022/01/27 02:20:40;;;;;;;15.48;8.82;;;;;;;1.98;69.18;102126.81;5061865;28;20445;-89
2022/01/27 02:23:23;;;;;;;19.65;8.70;;;;;;;2.01;68.89;102131.38;5076051;28;20480;-93
2022/01/27 02:26:10;;;;;;;15.73;8.68;;;;;;;2.15;69.18;102132.91;5058550;28;20028;-92
2022/01/27 02:28:59;;;;;;;16.15;8.73;;;;;;;2.09;68.80;102139.97;5060488;28;20028;-94
2022/01/27 02:31:32;;;;;;;15.15;8.30;;;;;;;1.96;69.56;102132.56;5077458;28;20036;-91
2022/01/27 02:34:00;;;;;;;16.60;8.93;;;;;;;2.08;68.60;102141.63;5072601;28;20033;-92
2022/01/27 02:36:39;;;;;;;16.80;8.82;;;;;;;2.03;69.54;102138.56;5057710;28;20082;-92
2022/01/27 02:39:54;;;;;;;15.63;8.18;;;;;;;2.01;69.60;102145.19;5057122;28;20021;-90
2022/01/27 02:43:07;;;;;;;16.70;8.63;;;;;;;2.07;69.11;102144.03;5074687;28;20051;-93
2022/01/27 02:46:15;;;;;;;15.00;8.73;;;;;;;2.19;68.47;102135.06;5095328;28;20043;-93
2022/01/27 02:49:19;;;;;;;15.45;8.43;;;;;;;2.15;68.70;102145.78;5094671;28;20036;-92
2022/01/27 02:52:02;;;;;;;15.85;8.30;;;;;;;1.96;69.25;102137.72;5076728;28;20043;-93
2022/01/27 02:55:02;;;;;;;16.13;8.68;;;;;;;2.10;69.26;102145.28;5076713;28;20055;-94
2022/01/27 02:57:36;;;;;;;15.27;8.25;;;;;;;2.07;69.15;102151.75;5060474;28;20033;-92
2022/01/27 03:00:07;;;;;;;17.77;8.70;;;;;;;2.12;69.52;102153.22;5039409;28;20033;-94
2022/01/27 03:02:45;;;;;;;16.30;8.57;;;;;;;2.16;68.69;102137.31;5074061;28;20032;-93
2022/01/27 03:05:28;;;;;;;16.15;8.80;;;;;;;2.09;68.36;102106.47;5057709;28;20111;-93
2022/01/27 03:08:11;;;;;;;14.85;8.60;;;;;;;1.76;68.54;102071.13;5061177;28;20093;-92
2022/01/27 03:10:48;;;;;;;16.73;8.77;;;;;;;1.79;68.83;102099.78;5046039;28;20029;-95
2022/01/27 03:13:22;;;;;;;14.85;8.55;;;;;;;2.11;68.20;102108.47;5039940;28;20419;-92
2022/01/27 03:16:11;;;;;;;15.32;8.32;;;;;;;2.20;68.67;102144.63;5058773;28;20028;-90
2022/01/27 03:18:40;;;;;;;15.98;8.55;;;;;;;2.17;68.57;102154.59;5019723;28;20045;-93
2022/01/27 03:21:14;;;;;;;14.75;8.43;;;;;;;1.89;69.18;102112.03;5019737;28;20510;-92
2022/01/27 03:23:41;;;;;;;15.88;8.80;;;;;;;1.88;68.49;102102.47;5019845;28;20036;-91
2022/01/27 03:26:23;;;;;;;14.85;8.60;;;;;;;1.94;68.82;102118.59;5020521;28;20025;-91
2022/01/27 03:29:04;;;;;;;15.20;8.20;;;;;;;2.12;68.90;102140.31;5036312;28;20033;-93
2022/01/27 03:31:32;;;;;;;15.77;8.38;;;;;;;2.17;68.98;102154.59;5036449;28;20322;-91
2022/01/27 03:34:17;;;;;;;15.27;8.57;;;;;;;2.09;68.92;102152.84;5036292;28;20404;-91
2022/01/27 03:37:00;;;;;;;16.48;7.95;;;;;;;2.22;68.65;102140.56;5050100;28;20040;-91
2022/01/27 03:43:04;;;;;;;16.80;8.60;;;;;;;2.15;69.09;102158.69;5034211;28;20117;-95
2022/01/27 03:45:30;;;;;;;15.90;8.65;;;;;;;2.07;69.38;102151.75;5022559;28;20030;-94
2022/01/27 03:48:13;;;;;;;17.48;8.77;;;;;;;2.05;69.56;102143.84;5036275;28;20036;-94
2022/01/27 03:51:17;;;;;;;16.80;9.05;;;;;;;2.09;69.58;102156.34;5016453;28;20026;-92
2022/01/27 03:54:08;;;;;;;16.20;8.55;;;;;;;2.35;68.50;102159.22;5032466;28;20037;-93
2022/01/27 03:56:50;;;;;;;16.35;8.23;;;;;;;2.15;68.54;102158.69;5021506;28;20085;-93
2022/01/27 03:59:22;;;;;;;14.52;7.93;;;;;;;1.92;68.94;102123.56;5032922;28;20028;-90
2022/01/27 04:02:21;;;;;;;15.05;8.32;;;;;;;2.14;68.78;102162.00;5027480;28;20072;-93
2022/01/27 04:04:48;;;;;;;15.15;8.02;;;;;;;2.05;69.49;102138.72;5035967;28;20059;-92
2022/01/27 04:07:14;;;;;;;16.55;8.55;;;;;;;1.93;69.34;102138.28;5041548;28;20047;-94
2022/01/27 04:09:51;;;;;;;15.95;8.45;;;;;;;2.12;69.22;102169.56;5038980;28;20089;-93
2022/01/27 04:12:20;;;;;;;17.00;8.75;;;;;;;2.12;69.33;102173.81;5055551;28;20051;-95
2022/01/27 04:15:04;;;;;;;15.98;8.18;;;;;;;2.21;67.78;102136.16;5057834;28;20024;-95
2022/01/27 04:17:30;;;;;;;15.88;8.60;;;;;;;2.26;68.06;102167.59;5052081;28;20055;-92
2022/01/27 04:20:28;;;;;;;15.18;8.45;;;;;;;2.23;68.88;102181.97;5073699;28;20024;-90
2022/01/27 04:22:55;;;;;;;15.25;8.57;;;;;;;2.29;68.43;102186.88;5054856;28;20039;-91
2022/01/27 04:25:32;;;;;;;14.90;7.72;;;;;;;2.31;68.58;102184.44;5054989;28;20031;-91
2022/01/27 04:28:07;;;;;;;14.55;7.78;;;;;;;2.24;69.19;102188.97;5071348;28;20115;-91
2022/01/27 04:31:07;;;;;;;16.27;8.27;;;;;;;2.24;69.05;102193.19;5055362;28;20021;-91
2022/01/27 04:33:36;;;;;;;16.50;8.07;;;;;;;2.29;69.02;102194.63;5055771;28;20124;-90
2022/01/27 04:36:14;;;;;;;14.50;7.95;;;;;;;2.52;67.86;102194.56;5071075;28;20036;-88
2022/01/27 04:38:52;;;;;;;16.33;8.57;;;;;;;2.08;68.48;102166.50;5056261;28;20031;-88
2022/01/27 04:44:50;;;;;;;14.27;8.45;;;;;;;2.31;68.39;102192.19;5072919;28;20082;-91
2022/01/27 04:47:40;;;;;;;16.65;8.40;;;;;;;2.21;68.28;102167.09;5054341;28;20579;-90
2022/01/27 04:53:35;;;;;;;12.93;7.32;;;;;;;2.24;68.84;102212.16;5043072;28;20047;-93
2022/01/27 04:56:37;;;;;;;16.48;8.52;;;;;;;2.29;69.15;102212.66;5050861;28;20055;-92
2022/01/27 04:59:26;;;;;;;16.80;8.85;;;;;;;2.56;67.58;102219.94;5030850;28;20041;-91
2022/01/27 05:02:10;;;;;;;15.02;7.88;;;;;;;2.51;67.95;102212.44;5047244;28;20053;-94
2022/01/27 05:04:51;;;;;;;15.80;8.10;;;;;;;2.41;68.05;102223.38;5051448;28;20034;-91
2022/01/27 05:07:24;;;;;;;16.23;8.32;;;;;;;2.35;68.15;102213.34;5064131;28;20116;-93
2022/01/27 05:09:59;;;;;;;15.60;8.10;;;;;;;2.32;68.80;102230.13;5060414;28;20029;-94
2022/01/27 05:12:39;;;;;;;16.75;8.65;;;;;;;2.18;68.70;102210.53;5035809;28;20037;-91
2022/01/27 05:15:10;;;;;;;17.20;9.10;;;;;;;2.36;68.12;102224.56;5035898;28;20033;-91
2022/01/27 05:17:53;;;;;;;14.88;8.07;;;;;;;2.22;68.14;102210.13;5035675;28;20052;-90
2022/01/27 05:20:19;;;;;;;15.02;8.15;;;;;;;2.40;68.31;102260.25;5046938;28;20032;-93
2022/01/27 05:22:54;;;;;;;15.80;8.38;;;;;;;2.22;69.00;102249.75;5074275;28;20490;-92
2022/01/27 05:25:23;;;;;;;14.45;8.27;;;;;;;2.51;68.24;102261.44;5041871;28;20083;-93
2022/01/27 05:27:57;;;;;;;16.65;8.45;;;;;;;2.12;68.86;102215.97;5034018;28;20037;-93
2022/01/27 05:31:18;;;;;;;16.60;8.48;;;;;;;2.27;69.20;102264.81;5034207;28;20047;-92
2022/01/27 05:33:45;;;;;;;13.77;7.90;;;;;;;1.97;68.80;102225.47;5050214;28;20033;-91
2022/01/27 05:36:28;;;;;;;17.27;8.75;;;;;;;1.99;69.25;102226.56;5041081;28;20032;-92
2022/01/27 05:38:54;;;;;;;16.05;8.20;;;;;;;2.43;68.91;102260.56;5058560;28;20490;-95
2022/01/27 05:41:58;;;;;;;15.65;7.78;;;;;;;2.36;68.22;102261.56;5074799;28;20081;-92
2022/01/27 05:44:32;;;;;;;17.67;8.65;;;;;;;2.37;68.09;102229.91;5091907;28;20085;-92
2022/01/27 05:47:06;;;;;;;15.13;8.30;;;;;;;2.06;69.09;102225.59;5057948;28;20081;-93
2022/01/27 05:49:35;;;;;;;16.20;8.40;;;;;;;2.20;68.77;102260.59;5058065;28;20082;-92
2022/01/27 05:52:04;;;;;;;14.25;7.68;;;;;;;2.18;69.27;102259.50;5059092;28;20020;-96
2022/01/27 05:54:40;;;;;;;16.45;8.20;;;;;;;2.03;68.98;102239.03;5061413;28;20045;-94
2022/01/27 05:57:09;;;;;;;15.82;8.50;;;;;;;2.12;68.71;102230.50;5061901;28;20063;-95
2022/01/27 05:59:42;;;;;;;13.73;7.57;;;;;;;2.36;68.99;102274.44;5063284;28;20063;-93
2022/01/27 06:02:23;;;;;;;16.83;8.90;;;;;;;2.51;67.93;102269.16;5043814;28;20059;-93
2022/01/27 06:04:49;;;;;;;16.17;8.05;;;;;;;2.09;69.03;102248.19;5042579;28;20516;-95
2022/01/27 06:07:18;;;;;;;14.77;8.23;;;;;;;2.19;69.34;102289.72;5040007;28;20033;-94
2022/01/27 06:09:43;;;;;;;16.35;8.50;;;;;;;2.07;68.87;102240.28;5042635;28;20024;-94
2022/01/27 06:12:11;;;;;;;16.05;8.60;;;;;;;2.18;69.35;102277.56;5038731;28;20086;-95
2022/01/27 06:14:44;;;;;;;16.00;8.07;;;;;;;2.34;68.81;102306.88;5025995;28;20455;-94
2022/01/27 06:17:09;;;;;;;17.08;8.45;;;;;;;2.17;68.94;102262.84;5042713;28;20041;-94
2022/01/27 06:19:37;;;;;;;15.50;8.32;;;;;;;2.30;69.32;102276.34;5058225;28;20120;-93
2022/01/27 06:22:11;;;;;;;16.00;8.02;;;;;;;2.26;68.49;102289.63;5076127;28;20029;-93
2022/01/27 06:25:03;;;;;;;15.18;8.07;;;;;;;2.29;69.24;102297.72;5085999;28;20428;-92
2022/01/27 06:27:30;;;;;;;14.80;8.38;;;;;;;1.95;68.86;102246.66;5073331;28;20044;-94
2022/01/27 06:33:58;;;;;;;14.52;7.72;;;;;;;2.30;69.55;102307.28;5074872;28;20047;-92
2022/01/27 06:39:45;;;;;;;17.35;8.73;;;;;;;2.09;69.06;102266.22;5034879;28;20512;-93
2022/01/27 06:43:05;;;;;;;17.92;8.98;;;;;;;2.26;69.72;102304.19;5090800;28;20028;-93
2022/01/27 06:45:32;;;;;;;16.80;8.98;;;;;;;2.01;69.25;102268.88;5033870;28;20041;-90
2022/01/27 06:47:59;;;;;;;18.52;9.10;;;;;;;1.86;69.64;102243.94;5055915;28;20495;-91
2022/01/27 06:50:25;;;;;;;18.10;9.10;;;;;;;2.06;68.82;102258.16;5056363;28;20025;-92
2022/01/27 06:53:03;;;;;;;19.10;9.07;;;;;;;1.52;69.23;102154.28;5056487;28;20086;-91
2022/01/27 06:55:30;;;;;;;18.48;9.57;;;;;;;2.20;68.89;102266.69;5063119;28;20033;-89
2022/01/27 06:57:59;;;;;;;17.42;8.63;;;;;;;2.18;69.39;102274.97;5079951;28;20019;-90
2022/01/27 07:01:05;;;;;;;20.40;10.13;;;;;;;2.28;69.43;102306.19;5069829;28;20389;-93
2022/01/27 07:03:32;;;;;;;19.75;9.50;;;;;;;2.22;69.49;102293.56;5055103;28;20070;-92
2022/01/27 07:06:21;;;;;;;17.10;9.18;;;;;;;2.21;69.69;102319.16;5054141;28;20093;-90
2022/01/27 07:09:02;;;;;;;19.27;9.57;;;;;;;1.95;69.07;102255.31;5054895;28;20032;-89
2022/01/27 07:11:28;;;;;;;19.48;9.93;;;;;;;1.91;69.46;102249.63;5052159;28;20420;-90
2022/01/27 07:13:57;;;;;;;18.00;9.15;;;;;;;1.96;69.02;102248.47;5036898;28;20033;-89
2022/01/27 07:16:25;;;;;;;21.25;10.45;;;;;;;2.22;69.11;102298.72;5065416;28;20078;-90
2022/01/27 07:18:58;;;;;;;18.85;9.23;;;;;;;2.24;69.73;102312.69;5038809;28;20477;-89
2022/01/27 07:21:25;;;;;;;21.15;9.98;;;;;;;2.04;69.79;102291.47;5044887;28;20481;-87
2022/01/27 07:23:53;;;;;;;19.95;10.27;;;;;;;2.22;69.83;102323.53;5072051;28;20029;-89
2022/01/27 07:26:25;;;;;;;18.88;9.73;;;;;;;1.96;68.71;102230.44;5047999;28;20034;-90
2022/01/27 07:28:54;;;;;;;19.15;9.70;;;;;;;2.34;68.96;102309.44;5039176;28;20060;-89
2022/01/27 07:31:21;;;;;;;21.05;9.13;;;;;;;2.42;69.17;102318.06;5054985;28;20035;-89
2022/01/27 07:33:48;;;;;;;18.42;9.43;;;;;;;2.11;68.34;102244.13;5038137;28;20526;-88
2022/01/27 07:36:24;;;;;;;19.35;10.27;;;;;;;2.25;68.77;102282.66;5054663;28;20052;-93
2022/01/27 07:38:53;;;;;;;19.13;9.80;;;;;;;2.30;68.56;102285.75;5035515;28;20033;-90
2022/01/27 07:41:44;;;;;;;22.73;10.20;;;;;;;2.41;69.41;102327.47;5035198;28;20021;-92
2022/01/27 07:44:10;;;;;;;20.35;10.55;;;;;;;1.99;69.00;102262.63;5051809;28;20033;-91
2022/01/27 07:46:39;;;;;;;24.40;11.07;;;;;;;2.42;69.31;102320.63;5035851;28;20021;-94
2022/01/27 07:49:07;;;;;;;19.73;9.85;;;;;;;2.23;69.25;102287.63;5054737;28;20036;-90
2022/01/27 07:52:06;;;;;;;19.38;10.00;;;;;;;2.38;69.05;102321.94;5044176;28;20025;-92
2022/01/27 07:54:37;;;;;;;23.83;10.25;;;;;;;2.17;69.29;102283.47;5037915;28;20032;-89
2022/01/27 07:57:03;;;;;;;22.25;11.20;;;;;;;1.97;69.20;102248.66;5037778;28;20115;-89
2022/01/27 07:59:28;;;;;;;20.98;10.18;;;;;;;1.96;69.38;102258.78;5046008;28;20038;-88
2022/01/27 08:01:55;;;;;;;22.77;11.45;;;;;;;2.10;69.57;102258.69;5072169;28;20476;-90
2022/01/27 08:04:28;;;;;;;21.02;11.05;;;;;;;2.27;69.58;102290.56;5038612;28;20028;-90
2022/01/27 08:06:53;;;;;;;18.55;9.77;;;;;;;2.20;69.15;102270.91;5050465;28;20044;-90
2022/01/27 08:09:19;;;;;;;22.60;10.43;;;;;;;2.23;68.50;102254.13;5059060;28;20100;-88
2022/01/27 08:11:55;;;;;;;22.63;10.65;;;;;;;2.56;68.30;102307.63;5044233;28;20028;-90
2022/01/27 08:14:35;;;;;;;21.08;10.95;;;;;;;2.57;68.95;102316.25;5059082;28;20032;-93
2022/01/27 08:17:01;;;;;;;23.40;10.70;;;;;;;2.43;69.22;102302.75;5053732;28;20066;-92
2022/01/27 08:19:27;;;;;;;19.52;10.18;;;;;;;2.18;68.78;102268.19;5053792;28;20506;-89
2022/01/27 08:21:53;;;;;;;18.08;9.90;;;;;;;2.35;68.31;102274.28;5042708;28;20056;-88
2022/01/27 08:24:20;;;;;;;20.20;9.93;;;;;;;2.45;68.60;102300.34;5054597;28;20064;-91
2022/01/27 08:26:52;;;;;;;17.70;9.68;;;;;;;2.57;68.37;102299.13;5057428;28;20054;-91
2022/01/27 08:29:23;;;;;;;19.13;9.90;;;;;;;2.55;68.29;102299.69;5044255;28;20073;-90
2022/01/27 08:32:06;;;;;;;21.48;10.35;;;;;;;2.07;68.87;102226.50;5046322;28;20491;-87
2022/01/27 08:34:41;;;;;;;20.35;10.27;;;;;;;2.40;68.85;102289.50;5069639;28;20088;-89
2022/01/27 08:37:30;;;;;;;19.58;10.40;;;;;;;2.57;69.05;102318.84;5068200;28;20052;-89
2022/01/27 08:40:17;;;;;;;19.33;10.15;;;;;;;2.71;68.26;102318.72;5034982;28;20079;-89
2022/01/27 08:42:44;;;;;;;16.60;9.52;;;;;;;2.40;68.02;102261.16;5047212;28;20476;-90
2022/01/27 08:45:19;;;;;;;19.50;10.05;;;;;;;2.94;67.22;102326.41;5048262;28;20075;-93
2022/01/27 08:47:48;;;;;;;21.40;10.10;;;;;;;2.76;67.63;102324.38;5053657;28;20028;-89
2022/01/27 08:50:15;;;;;;;20.13;10.55;;;;;;;2.17;67.84;102216.47;5053131;28;20024;-89
2022/01/27 08:52:47;;;;;;;18.52;9.75;;;;;;;2.50;67.70;102303.41;5053155;28;20403;-91
2022/01/27 08:55:14;;;;;;;20.73;9.88;;;;;;;2.17;68.08;102252.53;5053541;28;20031;-89
2022/01/27 08:58:03;;;;;;;19.02;9.70;;;;;;;2.85;67.54;102333.09;5050180;28;20461;-91
2022/01/27 09:00:31;;;;;;;18.63;9.35;;;;;;;2.74;68.59;102326.75;5035800;28;20039;-90
2022/01/27 09:02:58;;;;;;;19.88;9.93;;;;;;;2.99;67.23;102332.97;5052753;28;20107;-89
2022/01/27 09:05:28;;;;;;;18.70;9.52;;;;;;;2.30;68.27;102270.28;5053956;28;20028;-90
2022/01/27 09:07:56;;;;;;;17.13;9.55;;;;;;;2.50;68.47;102311.16;5038114;28;20029;-90
2022/01/27 09:10:23;;;;;;;18.95;9.95;;;;;;;2.62;68.50;102328.94;5050983;28;20506;-89
2022/01/27 09:12:48;;;;;;;;;;;;;;;2.70;68.48;102332.34;5036439;28;20020;-89
2022/01/27 09:15:14;;;;;;;18.17;9.38;;;;;;;2.36;68.42;102277.03;5054267;28;19999;-89
2022/01/27 09:17:41;;;;;;;17.98;9.48;;;;;;;2.62;68.27;102315.09;5033590;28;20041;-88
2022/01/27 09:20:09;;;;;;;20.00;10.13;;;;;;;2.50;68.50;102321.47;5033973;28;20028;-90
2022/01/27 09:22:45;;;;;;;20.23;9.88;;;;;;;2.43;68.76;102312.13;5040821;28;20032;-90
2022/01/27 09:25:20;;;;;;;19.02;9.95;;;;;;;2.26;68.93;102287.06;5033691;28;20503;-91
2022/01/27 09:28:02;;;;;;;16.88;8.63;;;;;;;2.48;68.69;102316.16;5053142;28;20033;-89
2022/01/27 09:30:29;;;;;;;20.13;9.52;;;;;;;2.57;68.80;102304.28;5035482;28;20044;-90
2022/01/27 09:32:58;;;;;;;19.40;9.82;;;;;;;2.71;68.85;102334.19;5044876;28;20056;-90
2022/01/27 09:35:30;;;;;;;18.00;9.55;;;;;;;2.73;68.60;102339.47;5023539;28;20043;-91
2022/01/27 09:38:01;;;;;;;20.08;9.88;;;;;;;2.58;68.72;102298.38;5048651;28;20119;-89
2022/01/27 09:40:28;;;;;;;18.83;9.90;;;;;;;2.32;68.69;102271.38;5033970;28;20435;-91
2022/01/27 09:43:03;;;;;;;17.65;9.20;;;;;;;2.65;68.60;102328.34;5056729;28;20511;-89
2022/01/27 09:45:33;;;;;;;21.45;10.38;;;;;;;2.55;68.09;102253.28;5036412;28;20025;-90
2022/01/27 09:48:15;;;;;;;17.60;10.10;;;;;;;2.65;68.29;102282.81;5043697;28;20029;-91
2022/01/27 09:53:25;;;;;;;18.60;10.10;;;;;;;2.75;68.18;102295.09;5055985;28;20036;-91
2022/01/27 09:55:58;;;;;;;17.55;9.68;;;;;;;3.00;67.66;102308.06;5056515;28;20031;-90
2022/01/27 09:58:24;;;;;;;18.60;9.82;;;;;;;2.69;68.13;102291.81;5040621;28;20028;-89
2022/01/27 10:00:51;;;;;;;18.73;9.75;;;;;;;2.87;67.88;102290.34;5039501;28;20030;-90
2022/01/27 10:04:13;;;;;;;16.70;9.32;;;;;;;2.88;67.83;102307.66;5017948;28;20029;-91
2022/01/27 10:06:49;;;;;;;16.90;9.15;;;;;;;2.74;68.61;102302.63;5054773;28;20044;-90
2022/01/27 10:09:30;;;;;;;18.83;9.63;;;;;;;2.47;68.72;102256.69;5049702;28;20041;-91
2022/01/27 10:12:08;;;;;;;17.55;10.20;;;;;;;2.93;68.06;102295.25;5038449;28;20112;-93
2022/01/27 10:14:39;;;;;;;17.42;9.73;;;;;;;2.91;67.44;102281.28;5058473;28;20036;-92
2022/01/27 10:17:12;;;;;;;17.60;9.98;;;;;;;2.59;68.14;102256.38;5079990;28;20040;-95
2022/01/27 10:19:38;;;;;;;17.17;9.23;;;;;;;3.12;67.49;102287.84;5044177;28;20029;-93
2022/01/27 10:22:13;;;;;;;18.58;9.57;;;;;;;2.85;68.17;102286.66;5049192;28;20078;-93
2022/01/27 10:25:08;;;;;;;17.88;9.75;;;;;;;2.87;68.66;102285.16;5038106;28;20061;-93
2022/01/27 10:32:59;;;;;;;15.75;9.00;;;;;;;3.01;67.90;102271.19;5061225;28;20042;-95
2022/01/27 10:35:27;;;;;;;16.55;9.65;;;;;;;1.95;67.70;102100.72;5054708;28;20097;-95
2022/01/27 10:37:59;;;;;;;18.15;9.98;;;;;;;2.98;68.11;102273.44;5067548;28;20016;-96
2022/01/27 10:49:26;;;;;;;19.10;9.50;;;;;;;2.24;67.54;102106.50;5048700;28;20065;-95
2022/01/27 10:57:16;;;;;;;16.42;8.88;;;;;;;3.04;68.05;102256.03;5082411;26;20052;-94
2022/01/27 10:59:48;;;;;;;18.73;8.98;;;;;;;3.24;67.65;102259.09;5067244;28;20036;-94
2022/01/27 11:05:40;;;;;;;16.38;8.77;;;;;;;2.14;68.02;102077.88;5857996;22;20103;-91
2022/01/27 11:11:39;;;;;;;15.38;8.95;;;;;;;2.09;68.57;102102.22;5386089;22;20060;-94
2022/01/27 11:16:43;;;;;;;17.75;9.40;;;;;;;3.18;67.90;102242.03;5816153;22;20420;-92
2022/01/27 11:22:08;;;;;;;16.15;8.75;;;;;;;3.22;68.11;102237.38;5050701;28;20030;-94
2022/01/27 11:25:06;;;;;;;15.77;8.65;;;;;;;2.85;68.21;102196.38;5044369;28;20029;-93
2022/01/27 11:27:39;;;;;;;16.52;8.77;;;;;;;3.08;68.77;102234.06;5060955;28;20040;-95
2022/01/27 11:35:25;;;;;;;15.85;8.40;;;;;;;2.01;68.90;102042.16;5835378;22;21757;-90
2022/01/27 11:38:03;;;;;;;14.57;8.65;;;;;;;2.36;68.76;102118.88;5175042;23;20075;-96
2022/01/27 11:40:43;;;;;;;16.45;8.88;;;;;;;3.15;68.54;102221.03;5050717;28;20021;-96
2022/01/27 11:43:12;;;;;;;15.60;8.65;;;;;;;2.29;67.80;102054.53;5056273;28;20136;-96
2022/01/27 11:46:13;;;;;;;17.00;9.15;;;;;;;3.18;68.25;102211.06;5028283;28;20045;-96
2022/01/27 11:58:55;;;;;;;15.23;8.30;;;;;;;2.10;69.03;102038.75;5103846;28;20055;-94
2022/01/27 12:01:31;;;;;;;15.35;8.48;;;;;;;3.15;68.20;102205.56;5082178;28;20028;-93
2022/01/27 12:04:16;;;;;;;16.98;9.20;;;;;;;3.32;68.10;102199.59;5069959;28;20100;-96
2022/01/27 12:06:51;;;;;;;15.95;8.90;;;;;;;3.16;68.74;102192.81;5084588;28;20118;-94
2022/01/27 12:09:20;;;;;;;16.00;8.65;;;;;;;3.16;68.45;102198.00;5289721;22;20058;-94
2022/01/27 12:12:35;;;;;;;15.82;8.48;;;;;;;3.19;68.63;102202.56;5150606;27;20047;-96
2022/01/27 12:15:13;;;;;;;17.25;8.85;;;;;;;2.49;68.84;102100.47;5134283;27;20034;-96
2022/01/27 12:17:40;;;;;;;16.50;9.15;;;;;;;2.15;68.56;102011.78;5190794;22;20047;-93
2022/01/27 12:20:44;;;;;;;16.40;8.75;;;;;;;2.17;68.25;102023.19;5083808;28;20508;-94
2022/01/27 12:23:15;;;;;;;15.10;8.55;;;;;;;2.49;68.35;102062.72;5213103;22;20047;-96
2022/01/27 12:25:45;;;;;;;15.98;8.40;;;;;;;3.05;68.69;102171.03;5275183;22;20639;-93
2022/01/27 12:28:13;;;;;;;14.50;8.43;;;;;;;3.10;68.89;102191.25;5084165;28;20038;-95
2022/01/27 12:34:37;;;;;;;15.55;8.68;;;;;;;3.24;68.70;102191.06;5114189;28;20058;-92
2022/01/27 12:37:13;;;;;;;16.45;8.73;;;;;;;3.38;68.01;102185.66;5113525;28;20040;-92
2022/01/27 12:39:51;;;;;;;13.97;8.37;;;;;;;3.28;68.00;102179.38;5097093;28;20031;-96
2022/01/27 12:42:55;;;;;;;16.52;8.88;;;;;;;3.30;68.01;102183.03;5096748;28;20392;-95
2022/01/27 12:45:43;;;;;;;13.82;8.52;;;;;;;3.15;69.12;102185.81;5105382;27;20022;-96
2022/01/27 12:48:21;;;;;;;15.10;8.73;;;;;;;2.97;69.06;102148.66;5132790;27;20036;-94
2022/01/27 12:50:56;;;;;;;14.07;8.38;;;;;;;3.04;68.49;102145.06;5115935;27;20038;-95
2022/01/27 12:53:23;;;;;;;13.93;8.15;;;;;;;3.17;68.41;102167.91;5108345;27;20604;-95
2022/01/27 12:55:51;;;;;;;14.25;8.50;;;;;;;3.18;68.68;102162.03;5115480;28;20068;-96
2022/01/27 12:58:38;;;;;;;15.02;7.70;;;;;;;3.36;68.07;102178.53;5101656;28;20050;-95
2022/01/27 13:01:14;;;;;;;;;;;;;;;3.40;67.87;102172.94;5108359;28;20039;-92
2022/01/27 13:03:59;;;;;;;14.98;8.60;;;;;;;3.21;68.39;102145.16;5097941;28;20014;-94
2022/01/27 13:06:31;;;;;;;13.35;7.72;;;;;;;3.38;68.35;102182.19;5103788;27;20019;-92
2022/01/27 13:09:22;;;;;;;13.45;7.95;;;;;;;3.41;68.59;102177.38;5098529;28;20049;-93
2022/01/27 13:12:00;;;;;;;13.57;7.97;;;;;;;3.34;68.16;102183.53;5076868;28;20513;-95
2022/01/27 13:15:06;;;;;;;14.13;8.05;;;;;;;2.93;68.56;102112.97;5083011;27;20036;-93
2022/01/27 13:17:46;;;;;;;13.82;7.75;;;;;;;3.24;68.54;102157.50;5091784;27;20513;-95
2022/01/27 13:20:53;;;;;;;13.73;8.00;;;;;;;3.36;68.61;102166.53;5083196;28;20028;-95
2022/01/27 13:23:24;;;;;;;13.38;7.70;;;;;;;2.77;68.51;102068.22;5087698;28;20122;-88
2022/01/27 13:25:54;;;;;;;14.43;8.38;;;;;;;3.39;68.30;102168.53;5097052;28;20387;-88
2022/01/27 13:28:26;;;;;;;15.10;8.13;;;;;;;3.27;68.15;102126.84;5096891;28;20031;-85
2022/01/27 13:31:14;;;;;;;13.30;7.57;;;;;;;2.96;68.00;102092.63;5095626;28;20505;-88
2022/01/27 13:33:42;;;;;;;13.85;7.97;;;;;;;3.38;68.76;102157.28;5091667;28;20048;-89
2022/01/27 13:36:30;;;;;;;14.52;8.10;;;;;;;3.05;68.28;102100.47;5098414;28;20098;-89
2022/01/27 13:41:37;;;;;;;13.50;8.10;;;;;;;3.05;68.39;102085.88;5114502;28;20035;-89
2022/01/27 13:44:05;;;;;;;13.38;7.50;;;;;;;3.43;68.93;102166.44;5079333;28;20423;-89
2022/01/27 13:46:49;;;;;;;12.18;7.55;;;;;;;3.56;68.24;102160.88;5114505;28;20026;-89
2022/01/27 13:49:27;;;;;;;15.02;8.60;;;;;;;3.28;68.23;102120.00;5094964;28;20509;-88
2022/01/27 13:51:56;;;;;;;13.40;7.78;;;;;;;3.52;67.35;102150.06;5097109;28;20019;-89
2022/01/27 13:54:32;;;;;;;12.63;7.53;;;;;;;3.65;67.16;102153.16;5094035;28;20024;-88
2022/01/27 13:57:13;;;;;;;14.63;7.40;;;;;;;3.55;67.60;102166.78;5113082;28;20031;-89
2022/01/27 13:59:58;;;;;;;13.27;7.80;;;;;;;3.63;67.08;102162.44;5103002;28;20032;-88
2022/01/27 14:02:31;;;;;;;14.30;7.65;;;;;;;3.51;68.39;102155.97;5097674;28;20080;-89
2022/01/27 14:05:14;;;;;;;12.93;7.65;;;;;;;3.62;67.97;102165.75;5096649;28;20019;-89
2022/01/27 14:07:48;;;;;;;13.38;7.85;;;;;;;3.67;67.24;102142.22;5097669;28;20106;-89
2022/01/27 14:10:26;;;;;;;12.75;7.60;;;;;;;3.77;67.17;102167.38;5114261;28;20031;-89
2022/01/27 14:13:29;;;;;;;13.95;7.78;;;;;;;3.74;67.27;102166.13;5099565;28;20412;-95